Time;durP1;ratioP1;P1;durP2;ratioP2;P2;SDS_P1;SDS_P2;PMS_P1;PMS_P2;Temp;Humidity;BMP_temperature;BMP_pressure;BME280_temperature;BME280_humidity;BME280_pressure;Samples;Min_cycle;Max_cycle;Signal;HPM_P1;HPM_P2
2021/01/06 00:00:45;;;;;;;19.17;7.38;;;22.50;34.20;;;;;;6090529;28;82097;-64
2021/01/06 00:03:45;;;;;;;14.48;7.50;;;22.50;34.10;;;;;;6103659;28;81423;-63
2021/01/06 00:06:46;;;;;;;14.07;8.07;;;22.50;34.20;;;;;;6097299;28;80840;-63
2021/01/06 00:09:46;;;;;;;16.95;8.00;;;22.40;34.20;;;;;;6104153;28;81012;-63
2021/01/06 00:12:47;;;;;;;14.15;7.85;;;22.50;34.20;;;;;;6103810;28;80841;-64
2021/01/06 00:15:47;;;;;;;14.35;8.00;;;22.50;34.20;;;;;;6102565;28;82417;-62
2021/01/06 00:18:49;;;;;;;15.18;8.13;;;22.40;34.20;;;;;;6104389;28;80585;-63
2021/01/06 00:21:50;;;;;;;15.23;7.43;;;22.50;34.30;;;;;;6101148;28;81570;-63
2021/01/06 00:24:50;;;;;;;14.50;7.47;;;22.40;34.20;;;;;;6103108;28;81514;-65
2021/01/06 00:27:51;;;;;;;14.13;6.80;;;22.40;34.10;;;;;;6102992;28;80654;-65
2021/01/06 00:30:51;;;;;;;15.25;7.30;;;22.40;34.40;;;;;;6103158;28;81379;-64
2021/01/06 00:33:52;;;;;;;11.50;6.35;;;22.40;34.10;;;;;;6103708;28;80701;-63
2021/01/06 00:36:52;;;;;;;15.35;7.10;;;22.40;34.10;;;;;;6104149;28;80805;-63
2021/01/06 00:39:53;;;;;;;16.17;7.88;;;22.40;34.20;;;;;;6104375;28;80810;-64
2021/01/06 00:42:53;;;;;;;14.18;6.50;;;22.40;34.10;;;;;;6091330;28;80713;-63
2021/01/06 00:45:54;;;;;;;14.13;7.63;;;22.30;34.10;;;;;;6088907;28;80779;-64
2021/01/06 00:48:55;;;;;;;17.52;8.40;;;22.40;34.20;;;;;;6091355;28;80357;-64
2021/01/06 00:51:55;;;;;;;13.95;6.97;;;22.30;34.20;;;;;;6101760;28;81872;-64
2021/01/06 00:54:56;;;;;;;14.80;7.75;;;22.40;34.40;;;;;;6092547;28;80687;-63
2021/01/06 00:57:56;;;;;;;16.00;7.47;;;22.30;34.10;;;;;;6098064;28;80807;-64
2021/01/06 01:00:59;;;;;;;13.13;7.93;;;22.30;34.30;;;;;;6087376;28;82968;-63
2021/01/06 01:04:10;;;;;;;16.90;7.72;;;22.30;33.90;;;;;;6100454;28;82753;-64
2021/01/06 01:07:11;;;;;;;18.17;7.10;;;22.40;34.10;;;;;;6103158;28;81366;-62
2021/01/06 01:10:11;;;;;;;15.93;7.95;;;22.30;34.10;;;;;;6102872;28;81393;-62
2021/01/06 01:13:12;;;;;;;15.98;8.05;;;22.30;34.10;;;;;;6097881;28;81906;-62
2021/01/06 01:16:12;;;;;;;11.32;6.93;;;22.30;33.90;;;;;;6103379;28;80916;-62
2021/01/06 01:19:13;;;;;;;16.40;8.38;;;22.30;34.10;;;;;;6100070;28;80365;-65
2021/01/06 01:22:13;;;;;;;17.48;7.88;;;22.30;33.90;;;;;;6103904;28;80316;-65
2021/01/06 01:25:14;;;;;;;14.00;7.53;;;22.30;33.80;;;;;;6096367;28;83545;-62
2021/01/06 01:28:14;;;;;;;14.73;7.60;;;22.30;34.00;;;;;;6102134;28;80482;-62
2021/01/06 01:31:15;;;;;;;14.68;7.50;;;22.30;33.90;;;;;;6100426;28;81458;-64
2021/01/06 01:34:15;;;;;;;13.90;6.80;;;22.30;34.20;;;;;;6097985;28;80403;-62
2021/01/06 01:37:16;;;;;;;15.35;7.43;;;22.30;34.50;;;;;;6098840;28;82270;-65
2021/01/06 01:40:16;;;;;;;13.85;7.22;;;22.30;34.40;;;;;;6102878;28;81179;-64
2021/01/06 01:43:17;;;;;;;15.27;8.00;;;22.30;34.20;;;;;;6101835;28;80417;-66
2021/01/06 01:46:17;;;;;;;14.85;7.88;;;22.30;34.30;;;;;;6088809;28;80940;-65
2021/01/06 01:49:18;;;;;;;15.52;7.90;;;22.30;34.50;;;;;;6092010;28;81058;-62
2021/01/06 01:52:18;;;;;;;13.90;7.35;;;22.30;34.90;;;;;;6076579;28;80502;-63
2021/01/06 01:55:20;;;;;;;15.95;7.43;;;22.30;34.80;;;;;;6088590;28;81037;-63
2021/01/06 01:58:20;;;;;;;17.40;7.97;;;22.30;35.00;;;;;;6084037;28;80742;-61
2021/01/06 02:01:21;;;;;;;16.13;7.70;;;22.30;34.50;;;;;;6092643;28;81044;-64
2021/01/06 02:04:21;;;;;;;13.18;7.45;;;22.20;34.70;;;;;;6072520;28;80913;-64
2021/01/06 02:07:22;;;;;;;12.50;7.22;;;22.20;34.80;;;;;;6077943;28;80578;-62
2021/01/06 02:10:22;;;;;;;12.38;6.97;;;22.30;34.80;;;;;;6076035;28;80257;-62
2021/01/06 02:13:23;;;;;;;14.57;7.45;;;22.20;34.60;;;;;;6076192;28;82536;-63
2021/01/06 02:16:23;;;;;;;16.42;7.47;;;22.20;34.60;;;;;;6085146;28;80440;-63
2021/01/06 02:19:24;;;;;;;14.90;7.93;;;22.20;34.50;;;;;;6081780;28;80455;-62
2021/01/06 02:22:25;;;;;;;15.98;7.47;;;22.20;34.50;;;;;;6083838;28;80509;-63
2021/01/06 02:25:25;;;;;;;14.77;7.35;;;22.20;34.50;;;;;;6082233;28;80351;-63
2021/01/06 02:28:26;;;;;;;13.77;6.97;;;22.20;34.30;;;;;;6074221;28;80276;-63
2021/01/06 02:31:29;;;;;;;14.45;7.22;;;22.20;34.80;;;;;;6079113;28;80814;-62
2021/01/06 02:34:30;;;;;;;12.50;6.80;;;22.20;34.60;;;;;;6071891;28;81367;-62
2021/01/06 02:37:31;;;;;;;15.77;8.65;;;22.20;34.70;;;;;;6091064;28;80453;-62
2021/01/06 02:40:32;;;;;;;15.48;7.55;;;22.20;34.30;;;;;;6083302;28;80627;-62
2021/01/06 02:43:32;;;;;;;13.73;8.15;;;22.20;34.10;;;;;;6088902;28;80781;-62
2021/01/06 02:46:33;;;;;;;17.95;8.50;;;22.20;34.00;;;;;;6072383;28;82135;-61
2021/01/06 02:49:33;;;;;;;15.27;7.53;;;22.20;34.00;;;;;;6077563;28;81783;-64
2021/01/06 02:52:34;;;;;;;14.95;7.22;;;22.20;34.40;;;;;;6097973;28;80774;-63
2021/01/06 02:55:34;;;;;;;15.05;6.95;;;22.20;34.20;;;;;;6097260;28;80715;-62
2021/01/06 02:58:35;;;;;;;14.00;7.60;;;22.20;34.00;;;;;;6102013;28;81224;-62
2021/01/06 03:01:35;;;;;;;13.60;7.53;;;22.10;34.20;;;;;;6104769;28;81009;-62
2021/01/06 03:04:36;;;;;;;13.27;7.28;;;22.10;34.40;;;;;;6104140;28;80371;-63
2021/01/06 03:07:36;;;;;;;15.73;7.72;;;22.10;34.20;;;;;;6101851;28;80546;-63
2021/01/06 03:10:37;;;;;;;17.05;7.75;;;22.10;34.40;;;;;;6101490;28;81805;-63
2021/01/06 03:13:37;;;;;;;15.32;7.30;;;22.10;34.00;;;;;;6100236;28;80903;-63
2021/01/06 03:16:38;;;;;;;12.68;6.70;;;22.10;34.10;;;;;;6104416;28;81538;-63
2021/01/06 03:19:38;;;;;;;12.23;7.03;;;22.20;33.90;;;;;;6103421;28;80373;-63
2021/01/06 03:22:39;;;;;;;14.40;6.95;;;22.20;34.50;;;;;;6104876;28;80973;-63
2021/01/06 03:25:41;;;;;;;13.95;7.18;;;22.20;34.50;;;;;;6095499;28;80510;-63
2021/01/06 03:28:42;;;;;;;13.43;7.18;;;22.20;34.40;;;;;;6103867;28;81475;-63
2021/01/06 03:31:42;;;;;;;14.07;7.53;;;22.20;34.40;;;;;;6095970;28;81277;-63
2021/01/06 03:34:43;;;;;;;13.48;7.00;;;22.20;34.60;;;;;;6105069;28;84234;-63
2021/01/06 03:37:43;;;;;;;13.82;7.03;;;22.20;34.60;;;;;;6087516;28;80793;-63
2021/01/06 03:40:44;;;;;;;13.88;6.75;;;22.20;34.70;;;;;;6102786;28;82211;-64
2021/01/06 03:43:44;;;;;;;14.52;7.25;;;22.20;34.70;;;;;;6100132;28;80757;-63
2021/01/06 03:46:45;;;;;;;12.25;6.90;;;22.20;34.60;;;;;;6093915;28;80772;-63
2021/01/06 03:49:45;;;;;;;14.70;7.43;;;22.20;34.80;;;;;;6117590;28;81218;-64
2021/01/06 03:52:46;;;;;;;13.40;7.07;;;22.20;34.50;;;;;;6103661;28;80797;-64
2021/01/06 03:55:48;;;;;;;13.98;6.97;;;22.20;34.70;;;;;;6092092;28;81748;-64
2021/01/06 03:58:48;;;;;;;14.70;7.82;;;22.20;34.90;;;;;;6101127;28;80715;-64
2021/01/06 04:01:49;;;;;;;15.13;7.38;;;22.20;34.70;;;;;;6102528;28;80860;-63
2021/01/06 04:04:49;;;;;;;14.13;7.13;;;22.30;34.80;;;;;;6093523;28;80624;-64
2021/01/06 04:07:50;;;;;;;13.93;7.60;;;22.20;34.50;;;;;;6103861;28;81231;-63
2021/01/06 04:10:51;;;;;;;16.95;7.60;;;22.20;34.30;;;;;;6100786;28;80456;-63
2021/01/06 04:13:51;;;;;;;13.18;7.05;;;22.20;34.50;;;;;;6091361;28;80586;-64
2021/01/06 04:16:52;;;;;;;14.80;7.57;;;22.20;34.50;;;;;;6119627;28;81739;-65
2021/01/06 04:19:52;;;;;;;13.93;7.57;;;22.20;34.30;;;;;;6103319;28;80463;-61
2021/01/06 04:22:53;;;;;;;14.98;7.93;;;22.10;34.50;;;;;;6104726;28;84182;-62
2021/01/06 04:25:53;;;;;;;15.15;7.53;;;22.20;34.60;;;;;;6102573;28;80948;-63
2021/01/06 04:28:54;;;;;;;16.23;7.43;;;22.20;34.50;;;;;;6101036;28;81665;-62
2021/01/06 04:31:54;;;;;;;14.88;8.00;;;22.20;34.20;;;;;;6102769;28;80265;-63
2021/01/06 04:34:55;;;;;;;14.95;7.78;;;22.20;34.20;;;;;;6088321;28;81035;-63
2021/01/06 04:37:58;;;;;;;16.48;7.88;;;22.10;34.00;;;;;;6103751;28;84478;-63
2021/01/06 04:40:58;;;;;;;13.88;6.72;;;22.10;34.00;;;;;;6104356;28;81388;-63
2021/01/06 04:43:59;;;;;;;15.77;8.35;;;22.20;34.20;;;;;;6103232;28;81303;-63
2021/01/06 04:46:59;;;;;;;15.43;8.20;;;22.20;34.10;;;;;;6102918;28;81179;-63
2021/01/06 04:50:00;;;;;;;15.30;7.53;;;22.30;34.20;;;;;;6094455;28;80689;-63
2021/01/06 04:53:00;;;;;;;13.95;7.40;;;22.30;34.30;;;;;;6102057;28;83426;-62
2021/01/06 04:56:01;;;;;;;15.25;7.63;;;22.30;34.40;;;;;;6097925;28;80995;-62
2021/01/06 04:59:01;;;;;;;14.05;7.82;;;22.30;34.10;;;;;;6098864;28;80571;-63
2021/01/06 05:02:02;;;;;;;15.52;7.68;;;22.30;33.90;;;;;;6097345;28;81860;-62
2021/01/06 05:05:03;;;;;;;13.75;7.60;;;22.40;34.10;;;;;;6100478;28;83682;-62
2021/01/06 05:08:03;;;;;;;13.00;8.13;;;22.40;33.80;;;;;;6100617;28;83591;-62
2021/01/06 05:11:04;;;;;;;15.57;8.05;;;22.40;33.50;;;;;;6089333;28;80916;-62
2021/01/06 05:14:04;;;;;;;15.18;7.35;;;22.40;33.50;;;;;;6093257;28;80348;-62
2021/01/06 05:17:05;;;;;;;13.90;7.72;;;22.50;33.90;;;;;;6102821;28;80812;-62
2021/01/06 05:20:05;;;;;;;16.52;8.55;;;22.40;33.50;;;;;;6101211;28;80970;-61
2021/01/06 05:23:06;;;;;;;15.93;7.70;;;22.50;33.70;;;;;;6094919;28;80157;-61
2021/01/06 05:26:07;;;;;;;16.75;8.35;;;22.50;33.60;;;;;;6090218;28;82914;-62
2021/01/06 05:29:07;;;;;;;19.73;8.07;;;22.50;33.70;;;;;;6100688;28;80977;-62
2021/01/06 05:32:08;;;;;;;17.20;7.85;;;22.50;33.40;;;;;;6113727;28;81604;-62
2021/01/06 05:35:08;;;;;;;13.43;7.57;;;22.50;33.30;;;;;;6101057;28;81351;-63
2021/01/06 05:38:12;;;;;;;16.23;8.32;;;22.50;33.20;;;;;;6102954;28;80413;-63
2021/01/06 05:41:12;;;;;;;15.80;8.45;;;22.50;33.20;;;;;;6102662;28;81025;-60
2021/01/06 05:44:13;;;;;;;15.45;7.65;;;22.60;33.10;;;;;;6102295;28;81060;-60
2021/01/06 05:47:16;;;;;;;13.55;7.28;;;22.60;33.20;;;;;;6102566;28;84218;-60
2021/01/06 05:50:16;;;;;;;9.93;6.00;;;22.60;34.20;;;;;;6100268;28;80560;-60
2021/01/06 05:53:17;;;;;;;25.17;10.05;;;22.60;36.90;;;;;;6091305;28;81429;-60
2021/01/06 05:56:17;;;;;;;15.55;7.28;;;22.70;35.00;;;;;;6098869;28;83215;-60
2021/01/06 05:59:18;;;;;;;15.32;8.20;;;22.70;35.70;;;;;;6100771;28;83996;-61
2021/01/06 06:02:19;;;;;;;16.08;8.70;;;22.70;34.20;;;;;;6099666;28;80563;-60
2021/01/06 06:05:20;;;;;;;17.13;7.88;;;22.70;34.90;;;;;;6099618;28;80968;-60
2021/01/06 06:08:20;;;;;;;15.38;8.25;;;22.80;35.70;;;;;;6096096;28;80821;-63
2021/01/06 06:11:21;;;;;;;14.27;7.65;;;22.80;34.40;;;;;;6103142;28;82859;-62
2021/01/06 06:14:21;;;;;;;13.00;7.60;;;22.80;35.50;;;;;;6095214;28;80967;-61
2021/01/06 06:17:22;;;;;;;13.20;6.90;;;22.80;35.00;;;;;;6101907;28;81748;-62
2021/01/06 06:20:22;;;;;;;15.60;7.60;;;22.80;35.60;;;;;;6094139;28;80478;-62
2021/01/06 06:23:23;;;;;;;14.57;7.47;;;22.80;35.70;;;;;;6101563;28;81596;-62
2021/01/06 06:26:23;;;;;;;14.57;7.25;;;22.90;35.60;;;;;;6090991;28;81648;-62
2021/01/06 06:29:23;;;;;;;14.02;7.50;;;22.90;36.80;;;;;;6102018;28;80806;-63
2021/01/06 06:32:24;;;;;;;13.45;7.05;;;22.90;34.80;;;;;;6091690;28;81697;-63
2021/01/06 06:35:24;;;;;;;18.23;7.95;;;22.90;35.20;;;;;;6104439;28;80654;-62
2021/01/06 06:38:25;;;;;;;16.42;7.70;;;22.90;35.20;;;;;;6105135;28;80911;-62
2021/01/06 06:41:25;;;;;;;15.45;7.47;;;23.00;35.10;;;;;;6104353;28;81569;-62
2021/01/06 06:44:28;;;;;;;21.33;8.20;;;23.00;35.30;;;;;;6098548;28;80790;-62
2021/01/06 06:47:28;;;;;;;15.45;8.07;;;23.00;35.40;;;;;;6105720;28;80403;-62
2021/01/06 06:50:29;;;;;;;41.13;8.40;;;23.00;35.20;;;;;;6097378;28;81385;-62
2021/01/06 06:53:29;;;;;;;16.85;8.70;;;23.10;35.60;;;;;;6101855;28;80605;-62
2021/01/06 06:56:30;;;;;;;15.15;7.57;;;23.10;35.90;;;;;;6100769;28;81651;-63
2021/01/06 06:59:30;;;;;;;18.48;8.48;;;23.10;35.90;;;;;;6102445;28;81850;-62
2021/01/06 07:02:31;;;;;;;17.67;8.57;;;23.20;36.00;;;;;;6098381;28;80568;-62
2021/01/06 07:05:31;;;;;;;15.43;9.30;;;23.20;36.10;;;;;;6093782;28;80845;-62
2021/01/06 07:08:32;;;;;;;16.80;9.10;;;23.20;36.10;;;;;;6095219;28;81072;-62
2021/01/06 07:11:32;;;;;;;19.17;8.88;;;23.20;36.10;;;;;;6101342;28;81440;-62
2021/01/06 07:14:33;;;;;;;18.50;9.80;;;23.20;35.90;;;;;;6094509;28;80435;-62
2021/01/06 07:17:33;;;;;;;20.08;9.50;;;23.20;35.90;;;;;;6096355;28;82207;-62
2021/01/06 07:20:34;;;;;;;17.95;9.20;;;23.20;35.90;;;;;;6102763;28;80900;-62
2021/01/06 07:23:34;;;;;;;17.17;8.77;;;23.20;35.70;;;;;;6093025;28;81466;-63
2021/01/06 07:26:35;;;;;;;18.13;9.57;;;23.20;35.90;;;;;;6098686;28;81280;-62
2021/01/06 07:29:35;;;;;;;20.20;9.93;;;23.20;35.90;;;;;;6089446;28;81049;-62
2021/01/06 07:32:37;;;;;;;18.05;9.50;;;23.20;35.70;;;;;;6097817;28;80872;-63
2021/01/06 07:35:38;;;;;;;17.65;9.73;;;23.10;36.00;;;;;;6100174;28;81190;-64
2021/01/06 07:38:39;;;;;;;14.57;8.40;;;23.10;35.60;;;;;;6098900;28;80535;-61
2021/01/06 07:41:40;;;;;;;17.65;9.10;;;23.10;35.60;;;;;;6099088;28;80879;-63
2021/01/06 07:44:40;;;;;;;23.90;11.23;;;23.10;35.80;;;;;;6093584;28;81027;-63
2021/01/06 07:47:41;;;;;;;19.08;10.23;;;23.20;35.30;;;;;;6088782;28;83499;-61
2021/01/06 07:50:41;;;;;;;16.63;9.60;;;23.20;35.50;;;;;;6100371;28;84203;-61
2021/01/06 07:53:42;;;;;;;17.75;10.15;;;23.10;35.50;;;;;;6101955;28;82973;-63
2021/01/06 07:56:42;;;;;;;21.08;10.85;;;23.10;35.30;;;;;;6096525;28;83326;-63
2021/01/06 07:59:43;;;;;;;17.67;9.93;;;23.10;35.00;;;;;;6090589;28;83093;-63
2021/01/06 08:02:56;;;;;;;24.83;11.63;;;23.20;35.10;;;;;;6096517;28;82978;-63
2021/01/06 08:05:57;;;;;;;24.60;12.55;;;23.20;35.50;;;;;;6082444;28;83529;-61
2021/01/06 08:08:58;;;;;;;25.20;13.43;;;23.20;35.90;;;;;;6088794;28;83810;-63
2021/01/06 08:11:58;;;;;;;26.70;12.73;;;23.20;36.30;;;;;;6096410;28;91833;-70
2021/01/06 08:14:59;;;;;;;39.95;18.27;;;23.20;37.60;;;;;;6096277;28;83340;-68
2021/01/06 08:17:59;;;;;;;142.00;40.22;;;23.20;38.90;;;;;;6097802;28;88159;-68
2021/01/06 08:21:02;;;;;;;112.35;35.65;;;23.30;42.00;;;;;;6091821;28;84272;-62
2021/01/06 08:24:05;;;;;;;146.18;41.42;;;23.30;40.20;;;;;;6096835;28;84270;-63
2021/01/06 08:27:05;;;;;;;155.52;47.00;;;23.30;41.70;;;;;;6094615;28;83405;-66
2021/01/06 08:30:06;;;;;;;181.27;52.78;;;23.30;42.40;;;;;;6095021;28;85174;-65
2021/01/06 08:33:06;;;;;;;213.02;59.42;;;23.30;42.60;;;;;;6090313;28;84462;-64
2021/01/06 08:36:07;;;;;;;219.52;60.97;;;23.30;43.30;;;;;;6091369;28;83611;-65
2021/01/06 08:39:07;;;;;;;228.50;62.05;;;23.20;42.70;;;;;;6090261;28;84537;-66
2021/01/06 08:42:08;;;;;;;221.20;65.60;;;23.20;42.70;;;;;;6095883;28;83693;-63
2021/01/06 08:45:08;;;;;;;202.73;63.28;;;23.20;42.60;;;;;;6094545;28;83858;-65
2021/01/06 08:48:09;;;;;;;228.68;61.58;;;23.20;43.20;;;;;;6096504;28;83876;-64
2021/01/06 08:51:09;;;;;;;185.73;61.00;;;23.20;42.60;;;;;;6094588;28;83306;-64
2021/01/06 08:54:10;;;;;;;177.50;54.72;;;23.20;42.70;;;;;;6094061;28;83389;-64
2021/01/06 08:57:10;;;;;;;170.18;56.08;;;23.20;42.20;;;;;;6089290;28;83699;-64
2021/01/06 09:00:11;;;;;;;146.57;50.13;;;23.20;42.40;;;;;;6093440;28;83527;-65
2021/01/06 09:03:11;;;;;;;165.98;52.60;;;23.20;42.10;;;;;;6095199;28;83631;-61
2021/01/06 09:06:12;;;;;;;134.52;47.78;;;23.30;42.00;;;;;;6096275;28;83754;-62
2021/01/06 09:09:13;;;;;;;135.23;45.10;;;23.20;41.80;;;;;;6096963;28;83292;-62
2021/01/06 09:12:13;;;;;;;126.03;43.05;;;23.30;41.90;;;;;;6100925;28;87073;-65
2021/01/06 09:15:14;;;;;;;125.97;42.60;;;23.20;41.20;;;;;;6099941;28;83657;-65
2021/01/06 09:18:14;;;;;;;113.63;42.58;;;23.20;41.00;;;;;;6099758;28;82911;-64
2021/01/06 09:21:15;;;;;;;112.07;39.65;;;23.20;40.50;;;;;;6098240;28;83326;-63
2021/01/06 09:24:16;;;;;;;105.38;36.58;;;23.20;39.90;;;;;;6098909;28;83327;-64
2021/01/06 09:27:16;;;;;;;100.93;36.67;;;23.30;39.80;;;;;;6096045;28;83598;-65
2021/01/06 09:30:17;;;;;;;101.07;35.78;;;23.20;39.50;;;;;;6100366;28;83741;-64
2021/01/06 09:33:17;;;;;;;101.03;35.75;;;23.20;39.50;;;;;;6093764;28;83790;-62
2021/01/06 09:36:18;;;;;;;81.82;31.77;;;23.20;39.50;;;;;;6093362;28;84569;-65
2021/01/06 09:39:19;;;;;;;80.88;30.27;;;23.20;38.90;;;;;;6097839;28;83459;-65
2021/01/06 09:42:20;;;;;;;81.47;32.22;;;23.20;38.80;;;;;;6098401;28;83352;-64
2021/01/06 09:45:21;;;;;;;80.25;29.45;;;23.20;38.90;;;;;;6098314;28;83361;-60
2021/01/06 09:48:21;;;;;;;69.38;26.10;;;23.20;38.90;;;;;;6098124;28;83322;-61
2021/01/06 09:51:22;;;;;;;65.07;26.20;;;23.20;38.50;;;;;;6093835;28;83495;-61
2021/01/06 09:54:22;;;;;;;66.72;26.20;;;23.20;38.20;;;;;;6094118;28;83626;-63
2021/01/06 09:57:23;;;;;;;64.75;24.50;;;23.30;38.20;;;;;;6095898;28;83440;-62
2021/01/06 10:00:23;;;;;;;59.97;24.60;;;23.30;38.10;;;;;;6097630;28;83769;-61
2021/01/06 10:03:24;;;;;;;62.35;23.73;;;23.30;37.90;;;;;;6093468;28;83332;-59
2021/01/06 10:06:25;;;;;;;60.53;23.30;;;23.20;38.10;;;;;;6095588;28;87636;-62
2021/01/06 10:09:25;;;;;;;56.55;23.50;;;23.30;38.10;;;;;;6099941;28;83788;-66
2021/01/06 10:12:26;;;;;;;53.47;22.67;;;23.20;38.30;;;;;;6093610;28;83231;-60
2021/01/06 10:15:26;;;;;;;54.13;21.70;;;23.30;38.30;;;;;;6101730;28;84751;-59
2021/01/06 10:18:27;;;;;;;48.55;19.55;;;23.20;38.10;;;;;;6104411;28;83720;-61
2021/01/06 10:21:27;;;;;;;50.75;21.40;;;23.10;38.00;;;;;;6100025;28;83689;-60
2021/01/06 10:24:28;;;;;;;50.00;20.95;;;23.10;38.30;;;;;;6105363;28;83028;-63
2021/01/06 10:27:28;;;;;;;44.50;19.83;;;23.10;37.90;;;;;;6102959;28;83649;-61
2021/01/06 10:30:29;;;;;;;43.10;19.75;;;23.10;38.00;;;;;;6103042;28;83476;-61
2021/01/06 10:33:31;;;;;;;38.13;18.67;;;23.20;37.90;;;;;;6101828;28;83912;-61
2021/01/06 10:36:31;;;;;;;41.72;18.70;;;23.20;37.80;;;;;;6098120;28;83245;-62
2021/01/06 10:39:32;;;;;;;38.22;18.48;;;23.30;37.20;;;;;;6097230;28;83125;-60
2021/01/06 10:42:33;;;;;;;37.47;18.55;;;23.30;36.90;;;;;;6099879;28;83605;-60
2021/01/06 10:45:34;;;;;;;41.63;18.15;;;23.30;36.40;;;;;;6101124;28;84314;-61
2021/01/06 10:48:35;;;;;;;38.78;17.98;;;23.30;36.20;;;;;;6103170;28;85612;-61
2021/01/06 10:51:35;;;;;;;37.08;17.77;;;23.40;36.20;;;;;;6102071;28;89179;-60
2021/01/06 10:54:36;;;;;;;34.33;17.23;;;23.40;37.20;;;;;;6102910;28;85179;-62
2021/01/06 10:57:36;;;;;;;34.83;17.65;;;23.50;36.50;;;;;;6100360;28;83251;-60
2021/01/06 11:00:37;;;;;;;34.67;17.40;;;23.50;36.20;;;;;;6093520;28;83310;-61
2021/01/06 11:03:37;;;;;;;34.47;17.08;;;23.60;36.60;;;;;;6100327;28;85383;-63
2021/01/06 11:06:38;;;;;;;31.90;17.30;;;23.60;37.00;;;;;;6089348;28;84263;-63
2021/01/06 11:09:38;;;;;;;33.75;17.40;;;23.70;37.10;;;;;;6096047;28;83403;-62
2021/01/06 11:12:39;;;;;;;34.67;17.50;;;23.70;37.60;;;;;;6101653;28;83368;-62
2021/01/06 11:15:40;;;;;;;33.40;17.70;;;23.70;38.60;;;;;;6102647;28;84097;-63
2021/01/06 11:18:40;;;;;;;31.50;17.23;;;23.80;39.20;;;;;;6085106;28;83910;-59
2021/01/06 11:21:41;;;;;;;31.20;17.27;;;23.80;41.20;;;;;;6100317;28;83832;-61
2021/01/06 11:24:41;;;;;;;32.13;17.67;;;23.80;39.80;;;;;;6094868;28;83577;-63
2021/01/06 11:27:42;;;;;;;28.42;16.48;;;23.80;39.90;;;;;;6099256;28;83249;-62
2021/01/06 11:30:42;;;;;;;32.17;17.00;;;23.90;41.90;;;;;;6103356;28;84014;-62
2021/01/06 11:33:43;;;;;;;29.90;17.08;;;23.90;42.70;;;;;;6102043;28;83085;-62
2021/01/06 11:36:43;;;;;;;31.70;17.98;;;23.90;42.50;;;;;;6101056;28;82916;-62
2021/01/06 11:39:44;;;;;;;32.30;16.20;;;23.80;43.00;;;;;;6102200;28;83618;-63
2021/01/06 11:42:44;;;;;;;27.65;14.60;;;23.90;41.90;;;;;;6101538;28;83027;-62
2021/01/06 11:45:45;;;;;;;29.95;16.33;;;23.90;42.00;;;;;;6098250;28;83027;-62
2021/01/06 11:48:46;;;;;;;25.92;15.32;;;23.90;41.70;;;;;;6091996;28;83972;-62
2021/01/06 11:51:46;;;;;;;27.00;16.05;;;23.80;41.40;;;;;;6102692;28;84692;-61
2021/01/06 11:54:46;;;;;;;28.20;16.48;;;23.80;41.10;;;;;;6093904;28;83691;-62
2021/01/06 11:57:47;;;;;;;31.08;14.95;;;23.90;41.10;;;;;;6099511;28;83574;-62
2021/01/06 12:00:48;;;;;;;29.90;14.57;;;23.80;40.80;;;;;;6097435;28;83614;-61
2021/01/06 12:03:48;;;;;;;27.65;14.20;;;23.80;40.50;;;;;;6095051;28;84024;-63
2021/01/06 12:06:49;;;;;;;28.77;15.35;;;23.80;40.40;;;;;;6099648;28;83206;-61
2021/01/06 12:09:49;;;;;;;27.77;14.88;;;23.70;40.10;;;;;;6097371;28;84036;-62
2021/01/06 12:12:50;;;;;;;26.15;14.48;;;23.70;40.00;;;;;;6100785;28;83780;-62
2021/01/06 12:15:52;;;;;;;26.55;15.63;;;23.70;39.70;;;;;;6099815;28;82798;-68
2021/01/06 12:18:52;;;;;;;26.05;15.50;;;23.60;40.10;;;;;;6101860;28;83234;-67
2021/01/06 12:21:53;;;;;;;26.02;15.43;;;23.60;39.80;;;;;;6100440;28;84037;-67
2021/01/06 12:24:53;;;;;;;29.33;15.02;;;23.60;39.70;;;;;;6101945;28;84175;-64
2021/01/06 12:27:54;;;;;;;23.48;14.73;;;23.50;39.30;;;;;;6100016;28;83229;-63
2021/01/06 12:30:54;;;;;;;24.52;14.35;;;23.50;39.10;;;;;;6098566;28;84173;-67
2021/01/06 12:33:55;;;;;;;24.90;14.45;;;23.50;38.90;;;;;;6086259;28;85284;-64
2021/01/06 12:36:55;;;;;;;24.55;14.27;;;23.40;38.50;;;;;;6094609;28;83636;-63
2021/01/06 12:39:56;;;;;;;24.85;14.40;;;23.40;38.30;;;;;;6095918;28;84525;-64
2021/01/06 12:42:57;;;;;;;23.90;14.13;;;23.50;37.80;;;;;;6093147;28;83454;-65
2021/01/06 12:45:57;;;;;;;25.60;14.48;;;23.40;37.30;;;;;;6093932;28;83452;-65
2021/01/06 12:48:58;;;;;;;25.90;14.20;;;23.40;37.40;;;;;;6099665;28;83863;-65
2021/01/06 12:51:58;;;;;;;26.20;14.63;;;23.40;37.50;;;;;;6091248;28;87039;-65
2021/01/06 12:54:58;;;;;;;25.58;14.63;;;23.30;37.30;;;;;;6109201;28;83710;-66
2021/01/06 12:57:59;;;;;;;24.02;13.50;;;23.30;37.30;;;;;;6092027;28;83184;-65
2021/01/06 13:01:01;;;;;;;22.02;13.77;;;23.30;37.20;;;;;;6100451;28;83105;-66
2021/01/06 13:04:02;;;;;;;30.92;15.15;;;23.30;37.30;;;;;;6098718;28;83013;-66
2021/01/06 13:07:02;;;;;;;22.00;13.95;;;23.30;37.10;;;;;;6099563;28;84167;-65
2021/01/06 13:10:03;;;;;;;26.08;15.00;;;23.30;37.00;;;;;;6095450;28;83570;-65
2021/01/06 13:13:03;;;;;;;22.98;13.65;;;23.30;37.00;;;;;;6088635;28;83462;-65
2021/01/06 13:16:04;;;;;;;21.88;13.75;;;23.30;37.20;;;;;;6094818;28;83335;-65
2021/01/06 13:19:04;;;;;;;22.60;13.95;;;23.30;37.00;;;;;;6097633;28;83370;-65
2021/01/06 13:22:05;;;;;;;21.15;13.00;;;23.30;36.90;;;;;;6096775;28;83692;-65
2021/01/06 13:25:05;;;;;;;22.40;13.80;;;23.30;38.20;;;;;;6101031;28;84221;-66
2021/01/06 13:28:06;;;;;;;23.42;13.63;;;23.30;37.40;;;;;;6089665;28;82896;-66
2021/01/06 13:31:09;;;;;;;24.88;13.73;;;23.30;36.90;;;;;;6088497;28;83013;-65
2021/01/06 13:34:10;;;;;;;21.70;13.65;;;23.30;37.20;;;;;;6099577;28;83498;-65
2021/01/06 13:37:10;;;;;;;22.20;12.70;;;23.30;37.40;;;;;;6100536;28;83438;-65
2021/01/06 13:40:11;;;;;;;21.58;13.05;;;23.30;37.20;;;;;;6095858;28;82979;-66
2021/01/06 13:43:11;;;;;;;19.40;12.35;;;23.30;37.20;;;;;;6095165;28;83509;-65
2021/01/06 13:46:12;;;;;;;21.25;13.05;;;23.30;37.20;;;;;;6094894;28;83284;-65
2021/01/06 13:49:12;;;;;;;25.90;13.10;;;23.30;37.10;;;;;;6097435;28;84083;-65
2021/01/06 13:52:13;;;;;;;22.55;13.57;;;23.30;37.30;;;;;;6093323;28;83304;-64
2021/01/06 13:55:14;;;;;;;23.88;13.02;;;23.30;37.10;;;;;;6098243;28;83095;-64
2021/01/06 13:58:14;;;;;;;21.58;13.48;;;23.20;37.40;;;;;;6096418;28;84534;-64
2021/01/06 14:01:14;;;;;;;20.90;12.45;;;23.30;37.10;;;;;;6096126;28;83725;-63
2021/01/06 14:04:16;;;;;;;24.67;14.38;;;23.30;37.20;;;;;;6097786;28;83923;-65
2021/01/06 14:07:17;;;;;;;21.98;13.07;;;23.30;36.90;;;;;;6094066;28;83611;-65
2021/01/06 14:10:17;;;;;;;20.20;12.82;;;23.20;37.00;;;;;;6100155;28;83581;-64
2021/01/06 14:13:18;;;;;;;20.50;12.40;;;23.20;37.00;;;;;;6098505;28;83619;-64
2021/01/06 14:16:19;;;;;;;39.55;16.08;;;23.20;36.70;;;;;;6095841;28;83961;-64
2021/01/06 14:19:20;;;;;;;18.77;11.85;;;23.20;36.80;;;;;;6100441;28;83212;-64
2021/01/06 14:22:20;;;;;;;22.30;12.52;;;23.20;36.90;;;;;;6096218;28;83378;-63
2021/01/06 14:25:21;;;;;;;26.55;12.60;;;23.20;37.00;;;;;;6097578;28;84470;-63
2021/01/06 14:28:21;;;;;;;21.90;12.35;;;23.20;37.10;;;;;;6090646;28;83469;-63
2021/01/06 14:31:22;;;;;;;21.15;13.27;;;23.20;37.50;;;;;;6096949;28;83639;-63
2021/01/06 14:34:23;;;;;;;28.52;12.50;;;23.20;37.80;;;;;;6093037;28;84255;-64
2021/01/06 14:37:23;;;;;;;20.45;12.95;;;23.20;37.90;;;;;;6096225;28;83376;-63
2021/01/06 14:40:24;;;;;;;21.83;12.88;;;23.30;37.70;;;;;;6073218;28;85595;-63
2021/01/06 14:43:24;;;;;;;22.48;13.18;;;23.30;38.10;;;;;;6098491;28;84272;-63
2021/01/06 14:46:25;;;;;;;20.40;12.18;;;23.30;38.20;;;;;;6096186;28;83307;-64
2021/01/06 14:49:26;;;;;;;21.05;13.05;;;23.30;38.50;;;;;;6095981;28;83371;-63
2021/01/06 14:52:26;;;;;;;21.23;12.05;;;23.30;38.30;;;;;;6093434;28;83360;-63
2021/01/06 14:55:27;;;;;;;20.15;12.35;;;23.30;38.40;;;;;;6095231;28;82882;-62
2021/01/06 14:58:27;;;;;;;22.17;13.18;;;23.30;38.60;;;;;;6099393;28;83176;-63
2021/01/06 15:01:28;;;;;;;24.40;14.27;;;23.30;38.20;;;;;;6095850;28;83378;-63
2021/01/06 15:04:29;;;;;;;21.00;13.05;;;23.30;37.90;;;;;;6098920;28;83123;-63
2021/01/06 15:07:29;;;;;;;25.67;15.50;;;23.30;37.70;;;;;;6097330;28;83140;-64
2021/01/06 15:10:31;;;;;;;22.98;13.75;;;23.30;38.10;;;;;;6101593;28;84918;-65
2021/01/06 15:13:31;;;;;;;24.50;14.65;;;23.30;38.20;;;;;;6101265;28;83596;-64
2021/01/06 15:16:32;;;;;;;29.20;15.20;;;23.30;38.20;;;;;;6100265;28;83527;-63
2021/01/06 15:19:32;;;;;;;25.10;15.82;;;23.40;38.20;;;;;;6115865;28;83595;-63